createdAt,value
2023-03-21T00:00:31.294Z,23.66
2023-03-21T00:01:31.293Z,23.66
2023-03-21T00:02:31.300Z,23.66
2023-03-21T00:04:40.833Z,23.65
2023-03-21T00:05:32.333Z,23.65
2023-03-21T00:06:31.274Z,23.65
2023-03-21T00:07:31.240Z,23.66
2023-03-21T00:08:31.248Z,23.65
2023-03-21T00:09:31.248Z,23.65
2023-03-21T00:10:40.587Z,23.65
2023-03-21T00:11:32.204Z,23.64
2023-03-21T00:12:31.175Z,23.65
2023-03-21T00:13:31.192Z,23.66
2023-03-21T00:14:31.187Z,23.65
2023-03-21T00:15:42.603Z,23.66
2023-03-21T00:16:36.241Z,23.65
2023-03-21T00:17:32.140Z,23.65
2023-03-21T00:47:31.137Z,23.63
2023-03-21T00:48:31.113Z,23.63
2023-03-21T00:49:31.109Z,23.63
2023-03-21T00:50:31.171Z,23.64
2023-03-21T00:51:31.221Z,23.63
2023-03-21T00:52:40.644Z,23.63
2023-03-21T00:53:32.249Z,23.62
2023-03-21T00:54:31.258Z,23.62
2023-03-21T00:55:31.239Z,23.62
2023-03-21T00:56:31.245Z,23.63
2023-03-21T00:57:38.589Z,23.62
2023-03-21T00:58:32.219Z,23.61
2023-03-21T00:59:31.392Z,23.61
2023-03-21T01:00:31.240Z,23.62
2023-03-21T01:01:31.206Z,23.62
2023-03-21T01:02:31.176Z,23.61
2023-03-21T01:03:31.522Z,23.62
2023-03-21T01:04:31.196Z,23.61
2023-03-21T01:05:31.182Z,23.61
2023-03-21T01:07:31.662Z,23.62
2023-03-21T01:08:38.326Z,23.61
2023-03-21T01:09:32.139Z,23.61
2023-03-21T01:10:31.120Z,23.60
2023-03-21T01:11:31.135Z,23.61
2023-03-21T01:12:31.127Z,23.61
2023-03-21T01:13:31.895Z,23.60
2023-03-21T01:14:31.137Z,23.60
2023-03-21T01:15:31.090Z,23.61
2023-03-21T01:16:31.204Z,23.61
2023-03-21T01:17:31.082Z,23.60
2023-03-21T01:18:31.099Z,23.60
2023-03-21T01:19:44.769Z,23.60
2023-03-21T01:20:32.064Z,23.59
2023-03-21T01:21:31.090Z,23.59
2023-03-21T01:22:31.064Z,23.60
2023-03-21T01:23:31.035Z,23.59
2023-03-21T01:24:31.306Z,23.59
2023-03-21T01:25:31.032Z,23.59
2023-03-21T01:26:31.055Z,23.59
2023-03-21T01:27:31.013Z,23.60
2023-03-21T01:28:30.987Z,23.60
2023-03-21T01:29:30.996Z,23.59
2023-03-21T01:30:33.906Z,23.60
2023-03-21T01:31:31.999Z,23.59
2023-03-21T01:32:30.977Z,23.60
2023-03-21T01:33:30.993Z,23.59
2023-03-21T01:35:37.487Z,23.58
2023-03-21T01:36:32.045Z,23.58
2023-03-21T01:53:31.246Z,23.56
2023-03-21T01:55:31.354Z,23.56
2023-03-21T01:56:31.411Z,23.56
2023-03-21T01:57:40.989Z,23.56
2023-03-21T01:58:32.457Z,23.55
2023-03-21T01:59:31.409Z,23.56
2023-03-21T02:00:31.396Z,23.56
2023-03-21T02:01:31.421Z,23.55
2023-03-21T02:02:31.468Z,23.56
2023-03-21T02:03:36.126Z,23.56
2023-03-21T02:04:32.378Z,23.55
2023-03-21T02:05:31.374Z,23.56
2023-03-21T02:06:31.389Z,23.55
2023-03-21T02:07:31.388Z,23.55
2023-03-21T02:08:39.196Z,23.56
2023-03-21T02:09:32.345Z,23.55
2023-03-21T02:10:31.362Z,23.55
2023-03-21T02:11:31.345Z,23.55
2023-03-21T02:12:31.348Z,23.55
2023-03-21T02:13:31.326Z,23.54
2023-03-21T02:14:31.292Z,23.54
2023-03-21T02:15:31.323Z,23.54
2023-03-21T02:16:31.407Z,23.54
2023-03-21T02:17:31.286Z,23.54
2023-03-21T02:18:31.288Z,23.54
2023-03-21T02:19:37.205Z,23.54
2023-03-21T02:20:32.327Z,23.54
2023-03-21T02:21:31.360Z,23.54
2023-03-21T02:22:31.348Z,23.54
2023-03-21T02:23:31.339Z,23.54
2023-03-21T02:24:31.295Z,23.54
2023-03-21T02:25:31.295Z,23.54
2023-03-21T02:26:41.146Z,23.54
2023-03-21T02:28:31.297Z,23.53
2023-03-21T02:29:31.296Z,23.53
2023-03-21T02:30:37.419Z,23.53
2023-03-21T02:32:37.310Z,23.53
2023-03-21T02:43:31.298Z,23.53
2023-03-21T02:44:31.330Z,23.53
2023-03-21T02:45:31.401Z,23.53
2023-03-21T02:46:41.737Z,23.53
2023-03-21T02:47:32.447Z,23.52
2023-03-21T02:48:44.552Z,23.52
2023-03-21T02:49:32.445Z,23.52
2023-03-21T02:50:31.416Z,23.52
2023-03-21T02:51:31.448Z,23.52
2023-03-21T02:52:39.240Z,23.53
2023-03-21T02:53:32.414Z,23.53
2023-03-21T02:54:46.981Z,23.53
2023-03-21T02:55:32.376Z,23.52
2023-03-21T02:56:31.375Z,23.52
2023-03-21T02:57:42.102Z,23.52
2023-03-21T02:58:32.391Z,23.52
2023-03-21T02:59:31.925Z,23.53
2023-03-21T03:00:31.385Z,23.52
2023-03-21T03:01:31.394Z,23.53
2023-03-21T03:02:31.354Z,23.53
2023-03-21T03:03:34.665Z,23.53
2023-03-21T03:04:31.387Z,23.52
2023-03-21T03:05:31.315Z,23.52
2023-03-21T03:06:31.307Z,23.51
2023-03-21T03:07:31.333Z,23.52
2023-03-21T03:09:31.344Z,23.51
2023-03-21T03:15:02.759Z,23.51
2023-03-21T03:15:32.304Z,23.51
2023-03-21T03:26:31.308Z,23.50
2023-03-21T03:27:31.350Z,23.51
2023-03-21T03:28:31.373Z,23.50
2023-03-21T03:29:31.450Z,23.52
2023-03-21T03:30:41.178Z,23.51
2023-03-21T03:31:32.533Z,23.50
2023-03-21T03:32:31.501Z,23.51
2023-03-21T03:33:31.492Z,23.50
2023-03-21T03:38:31.477Z,23.50
2023-03-21T03:40:31.454Z,23.50
2023-03-21T03:41:50.251Z,23.50
2023-03-21T03:42:32.501Z,23.50
2023-03-21T03:43:31.452Z,23.50
2023-03-21T03:44:31.476Z,23.49
2023-03-21T03:45:31.467Z,23.49
2023-03-21T03:46:31.479Z,23.49
2023-03-21T03:47:34.980Z,23.49
2023-03-21T03:48:31.498Z,23.49
2023-03-21T03:49:31.441Z,23.48
2023-03-21T03:50:31.434Z,23.49
2023-03-21T03:51:31.418Z,23.48
2023-03-21T03:52:31.397Z,23.48
2023-03-21T03:53:31.430Z,23.47
2023-03-21T03:54:31.387Z,23.47
2023-03-21T03:55:31.405Z,23.47
2023-03-21T03:56:31.492Z,23.48
2023-03-21T03:57:31.421Z,23.47
2023-03-21T03:58:44.601Z,23.48
2023-03-21T03:59:32.435Z,23.47
2023-03-21T04:00:31.369Z,23.48
2023-03-21T04:01:31.461Z,23.47
2023-03-21T04:02:31.407Z,23.48
2023-03-21T04:03:46.129Z,23.50
2023-03-21T04:04:32.379Z,23.50
2023-03-21T04:05:31.355Z,23.51
2023-03-21T04:06:31.309Z,23.52
2023-03-21T04:07:31.316Z,23.53
2023-03-21T04:08:31.331Z,23.55
2023-03-21T04:09:43.047Z,23.57
2023-03-21T04:10:32.314Z,23.59
2023-03-21T04:11:31.282Z,23.60
2023-03-21T04:12:31.288Z,23.63
2023-03-21T04:13:31.265Z,23.66
2023-03-21T04:14:44.001Z,23.68
2023-03-21T04:15:32.256Z,23.69
2023-03-21T04:16:31.977Z,23.71
2023-03-21T04:17:31.258Z,23.74
2023-03-21T04:54:31.063Z,24.22
2023-03-21T04:55:31.049Z,24.23
2023-03-21T04:56:31.063Z,24.23
2023-03-21T04:57:31.125Z,24.23
2023-03-21T04:58:31.063Z,24.23
2023-03-21T04:59:31.064Z,24.24
2023-03-21T05:00:31.083Z,24.23
2023-03-21T05:01:31.122Z,24.23
2023-03-21T05:02:31.077Z,24.24
2023-03-21T05:03:32.272Z,24.23
2023-03-21T05:04:31.090Z,24.24
2023-03-21T05:05:31.053Z,24.23
2023-03-21T05:06:31.070Z,24.23
2023-03-21T05:07:31.033Z,24.24
2023-03-21T05:08:31.032Z,24.23
2023-03-21T05:09:31.038Z,24.23
2023-03-21T05:10:31.038Z,24.23
2023-03-21T05:11:31.083Z,24.24
2023-03-21T05:12:31.018Z,24.23
2023-03-21T05:13:31.054Z,24.24
2023-03-21T05:14:31.040Z,24.24
2023-03-21T05:15:31.036Z,24.24
2023-03-21T05:16:31.085Z,24.24
2023-03-21T05:17:31.035Z,24.23
2023-03-21T05:18:31.013Z,24.24
2023-03-21T05:19:31.008Z,24.23
2023-03-21T05:20:30.997Z,24.24
2023-03-21T05:21:31.002Z,24.23
2023-03-21T05:22:31.030Z,24.24
2023-03-21T05:23:30.982Z,24.24
2023-03-21T05:24:30.985Z,24.24
2023-03-21T05:25:30.996Z,24.23
2023-03-21T05:26:30.963Z,24.24
2023-03-21T05:27:30.979Z,24.24
2023-03-21T05:28:30.994Z,24.25
2023-03-21T05:29:30.974Z,24.24
2023-03-21T05:30:30.958Z,24.24
2023-03-21T05:31:30.965Z,24.25
2023-03-21T05:32:30.976Z,24.25
2023-03-21T05:33:30.958Z,24.25
2023-03-21T05:34:30.935Z,24.24
2023-03-21T05:35:30.968Z,24.25
2023-03-21T05:36:30.939Z,24.26
2023-03-21T05:37:30.938Z,24.25
2023-03-21T05:38:30.914Z,24.25
2023-03-21T05:39:30.955Z,24.25
2023-03-21T05:40:30.942Z,24.25
2023-03-21T05:41:30.919Z,24.25
2023-03-21T05:42:30.948Z,24.26
2023-03-21T05:43:30.907Z,24.25
2023-03-21T05:44:30.915Z,24.26
2023-03-21T05:45:30.927Z,24.25
2023-03-21T05:46:30.992Z,24.26
2023-03-21T05:47:30.925Z,24.26
2023-03-21T05:48:30.921Z,24.26
2023-03-21T05:49:30.932Z,24.26
2023-03-21T05:50:30.924Z,24.27
2023-03-21T05:51:30.923Z,24.27
2023-03-21T05:53:25.517Z,24.28
2023-03-21T05:54:25.534Z,24.29
2023-03-21T05:55:25.506Z,24.28
2023-03-21T05:56:25.516Z,24.28
2023-03-21T05:57:25.528Z,24.27
2023-03-21T05:58:25.490Z,24.28
2023-03-21T05:59:25.479Z,24.28
2023-03-21T06:00:32.460Z,24.29
2023-03-21T06:02:25.572Z,24.28
2023-03-21T06:03:25.554Z,24.28
2023-03-21T06:04:25.486Z,24.29
2023-03-21T06:05:25.462Z,24.29
2023-03-21T06:06:25.432Z,24.28
2023-03-21T06:16:25.488Z,24.31
2023-03-21T06:17:25.386Z,24.31
2023-03-21T06:18:25.379Z,24.31
2023-03-21T06:19:25.351Z,24.32
2023-03-21T06:20:25.339Z,24.32
2023-03-21T06:21:26.835Z,24.33
2023-03-21T06:22:25.346Z,24.33
2023-03-21T06:23:25.300Z,24.34
2023-03-21T06:24:25.325Z,24.34
2023-03-21T06:25:25.315Z,24.35
2023-03-21T06:26:25.307Z,24.35
2023-03-21T06:27:25.291Z,24.35
2023-03-21T06:28:25.324Z,24.36
2023-03-21T06:29:25.271Z,24.36
2023-03-21T06:30:25.265Z,24.37
2023-03-21T06:31:25.309Z,24.37
2023-03-21T06:32:25.259Z,24.38
2023-03-21T06:33:25.766Z,24.33
2023-03-21T06:34:25.252Z,24.28
2023-03-21T06:35:25.287Z,24.29
2023-03-21T06:36:25.242Z,24.28
2023-03-21T06:37:25.257Z,24.22
2023-03-21T06:38:26.754Z,24.19
2023-03-21T06:39:25.219Z,24.20
2023-03-21T06:40:25.191Z,24.22
2023-03-21T06:41:25.260Z,24.27
2023-03-21T06:42:25.166Z,24.30
2023-03-21T06:43:25.207Z,24.35
2023-03-21T06:44:25.203Z,24.39
2023-03-21T06:45:25.180Z,24.44
2023-03-21T06:46:32.233Z,24.51
2023-03-21T06:47:25.202Z,24.57
2023-03-21T06:48:25.365Z,24.65
2023-03-21T06:49:25.216Z,24.68
2023-03-21T06:50:26.255Z,24.72
2023-03-21T06:51:25.303Z,24.77
2023-03-21T06:52:26.217Z,24.81
2023-03-21T06:53:25.865Z,24.85
2023-03-21T06:54:25.287Z,24.88
2023-03-21T06:55:25.251Z,24.91
2023-03-21T06:56:25.230Z,24.93
2023-03-21T06:57:25.224Z,24.96
2023-03-21T06:58:25.153Z,24.96
2023-03-21T06:59:25.141Z,24.96
2023-03-21T07:00:25.132Z,24.99
2023-03-21T07:01:25.152Z,25.01
2023-03-21T07:02:25.161Z,25.03
2023-03-21T07:03:25.336Z,25.06
2023-03-21T07:04:25.100Z,25.07
2023-03-21T07:05:25.093Z,25.09
2023-03-21T07:06:25.075Z,25.10
2023-03-21T07:08:25.048Z,25.13
2023-03-21T07:09:25.090Z,25.14
2023-03-21T07:10:25.076Z,25.16
2023-03-21T07:11:25.060Z,25.17
2023-03-21T07:12:25.041Z,25.18
2023-03-21T07:13:25.033Z,25.19
2023-03-21T07:15:25.041Z,25.23
2023-03-21T07:16:25.104Z,25.23
2023-03-21T07:17:25.057Z,25.24
2023-03-21T07:18:25.061Z,25.25
2023-03-21T07:19:24.982Z,25.26
2023-03-21T07:20:24.999Z,25.28
2023-03-21T07:21:25.051Z,25.28
2023-03-21T07:22:24.977Z,25.29
2023-03-21T07:23:25.002Z,25.30
2023-03-21T07:24:24.929Z,25.31
2023-03-21T07:25:25.067Z,25.32
2023-03-21T07:26:24.948Z,25.32
2023-03-21T07:27:24.922Z,25.34
2023-03-21T07:28:24.993Z,25.34
2023-03-21T07:29:24.908Z,25.35
2023-03-21T07:30:24.941Z,25.36
2023-03-21T07:31:24.929Z,25.37
2023-03-21T07:32:24.906Z,25.38
2023-03-21T07:33:24.889Z,25.40
2023-03-21T07:34:24.935Z,25.41
2023-03-21T07:35:24.913Z,25.42
2023-03-21T07:36:24.871Z,25.42
2023-03-21T07:37:24.910Z,25.15
2023-03-21T07:38:25.005Z,24.79
2023-03-21T07:39:24.972Z,24.21
2023-03-21T07:40:24.995Z,23.70
2023-03-21T07:41:25.008Z,23.34
2023-03-21T07:42:25.033Z,23.33
2023-03-21T07:43:25.052Z,23.44
2023-03-21T07:44:25.059Z,23.57
2023-03-21T07:45:25.141Z,23.70
2023-03-21T07:47:25.181Z,24.03
2023-03-21T07:48:25.268Z,24.19
2023-03-21T07:49:25.264Z,24.33
2023-03-21T07:50:25.283Z,24.45
2023-03-21T07:52:25.324Z,24.64
2023-03-21T07:55:25.433Z,24.81
2023-03-21T07:56:25.520Z,24.86
2023-03-21T07:57:25.573Z,24.90
2023-03-21T07:58:25.592Z,24.93
2023-03-21T07:59:25.595Z,24.96
2023-03-21T08:01:25.658Z,25.02
2023-03-21T08:02:25.750Z,25.02
2023-03-21T08:03:25.729Z,25.05
2023-03-21T08:04:25.734Z,24.96
2023-03-21T08:05:25.757Z,24.78
2023-03-21T08:06:25.797Z,24.61
2023-03-21T08:07:25.800Z,24.49
2023-03-21T08:08:25.872Z,24.37
2023-03-21T08:09:25.920Z,24.36
2023-03-21T08:10:25.982Z,24.38
2023-03-21T08:11:25.999Z,24.22
2023-03-21T08:12:26.047Z,24.14
2023-03-21T08:13:26.096Z,24.03
2023-03-21T08:14:26.040Z,23.86
2023-03-21T08:15:26.099Z,23.76
2023-03-21T08:16:26.189Z,23.68
2023-03-21T08:17:27.131Z,23.57
2023-03-21T08:18:26.208Z,23.45
2023-03-21T08:19:26.221Z,23.61
2023-03-21T08:20:26.280Z,23.82
2023-03-21T08:21:26.317Z,24.02
2023-03-21T08:22:26.351Z,24.19
2023-03-21T08:23:26.395Z,24.33
2023-03-21T08:24:26.388Z,24.44
2023-03-21T08:25:26.430Z,24.52
2023-03-21T08:26:26.449Z,24.55
2023-03-21T08:27:26.495Z,24.36
2023-03-21T08:28:26.868Z,24.10
2023-03-21T08:29:26.519Z,23.95
2023-03-21T08:30:26.695Z,23.79
2023-03-21T08:31:26.650Z,23.71
2023-03-21T08:32:26.689Z,23.61
2023-03-21T08:33:26.817Z,23.54
2023-03-21T08:34:26.763Z,23.45
2023-03-21T08:35:27.541Z,23.35
2023-03-21T08:36:26.760Z,23.44
2023-03-21T08:37:26.777Z,23.49
2023-03-21T08:38:26.823Z,23.42
2023-03-21T08:39:26.835Z,23.31
2023-03-21T08:40:26.922Z,23.26
2023-03-21T08:41:26.822Z,23.24
2023-03-21T08:42:26.848Z,23.44
2023-03-21T08:43:27.382Z,23.65
2023-03-21T08:44:26.914Z,23.78
2023-03-21T08:45:26.951Z,23.96
2023-03-21T08:46:27.081Z,23.92
2023-03-21T08:47:26.939Z,23.95
2023-03-21T08:48:27.045Z,24.10
2023-03-21T08:49:27.071Z,24.15
2023-03-21T08:50:27.072Z,24.23
2023-03-21T08:51:27.270Z,24.34
2023-03-21T08:52:27.231Z,24.45
2023-03-21T08:53:27.182Z,24.53
2023-03-21T08:54:27.261Z,24.61
2023-03-21T08:55:27.201Z,24.67
2023-03-21T08:56:27.201Z,24.72
2023-03-21T08:57:27.304Z,24.77
2023-03-21T08:58:27.370Z,24.81
2023-03-21T08:59:27.376Z,24.84
2023-03-21T09:00:27.447Z,24.88
2023-03-21T09:01:27.512Z,24.91
2023-03-21T09:02:27.587Z,24.92
2023-03-21T09:03:27.844Z,24.96
2023-03-21T09:04:27.592Z,24.99
2023-03-21T09:05:27.530Z,25.01
2023-03-21T09:06:27.554Z,25.04
2023-03-21T09:07:27.566Z,25.06
2023-03-21T09:08:27.582Z,25.08
2023-03-21T09:09:27.598Z,25.10
2023-03-21T09:10:27.557Z,25.12
2023-03-21T09:11:27.556Z,25.14
2023-03-21T09:12:27.568Z,25.16
2023-03-21T09:13:27.595Z,25.13
2023-03-21T09:14:28.921Z,25.16
2023-03-21T09:15:27.644Z,25.16
2023-03-21T09:16:27.672Z,25.19
2023-03-21T09:17:27.647Z,25.23
2023-03-21T09:18:27.636Z,25.28
2023-03-21T09:19:27.647Z,25.32
2023-03-21T09:20:27.681Z,25.36
2023-03-21T09:21:27.650Z,25.38
2023-03-21T09:22:27.682Z,25.41
2023-03-21T09:23:27.867Z,25.43
2023-03-21T09:24:27.690Z,25.46
2023-03-21T09:25:27.694Z,25.47
2023-03-21T09:26:27.888Z,25.49
2023-03-21T09:27:27.752Z,25.50
2023-03-21T09:28:27.785Z,25.52
2023-03-21T09:29:27.822Z,25.54
2023-03-21T09:30:27.859Z,25.56
2023-03-21T09:31:27.903Z,25.51
2023-03-21T09:32:27.836Z,25.48
2023-03-21T09:33:28.351Z,25.32
2023-03-21T09:34:27.921Z,25.25
2023-03-21T09:35:27.942Z,25.17
2023-03-21T09:36:28.001Z,25.04
2023-03-21T09:37:27.984Z,24.78
2023-03-21T09:38:28.083Z,24.56
2023-03-21T09:39:28.061Z,24.30
2023-03-21T09:40:28.066Z,24.07
2023-03-21T09:41:28.297Z,24.00
2023-03-21T09:42:28.131Z,24.07
2023-03-21T09:43:28.115Z,24.15
2023-03-21T09:44:28.095Z,24.22
2023-03-21T09:45:28.161Z,24.29
2023-03-21T09:46:28.205Z,24.36
2023-03-21T09:47:28.220Z,24.41
2023-03-21T09:48:28.333Z,24.46
2023-03-21T09:49:28.369Z,24.43
2023-03-21T09:50:28.295Z,24.30
2023-03-21T09:51:28.364Z,23.94
2023-03-21T09:52:28.397Z,23.64
2023-03-21T09:53:28.416Z,23.55
2023-03-21T09:54:28.441Z,23.52
2023-03-21T09:55:28.417Z,23.53
2023-03-21T09:56:28.413Z,23.55
2023-03-21T09:57:28.760Z,23.53
2023-03-21T09:58:28.500Z,23.50
2023-03-21T09:59:28.855Z,23.50
2023-03-21T10:00:28.639Z,23.53
2023-03-21T10:01:28.662Z,23.53
2023-03-21T10:02:28.729Z,23.54
2023-03-21T10:03:28.775Z,23.52
2023-03-21T10:04:28.934Z,23.51
2023-03-21T10:05:28.879Z,23.49
2023-03-21T10:06:28.977Z,23.45
2023-03-21T10:07:29.079Z,23.43
2023-03-21T10:08:29.089Z,23.47
2023-03-21T10:09:29.111Z,23.56
2023-03-21T10:10:29.214Z,23.65
2023-03-21T10:11:29.230Z,23.75
2023-03-21T10:12:29.262Z,23.83
2023-03-21T10:13:29.254Z,23.82
2023-03-21T10:14:29.356Z,23.73
2023-03-21T10:15:29.329Z,23.73
2023-03-21T10:16:29.409Z,23.80
2023-03-21T10:17:29.383Z,23.87
2023-03-21T10:18:29.392Z,23.92
2023-03-21T10:19:29.885Z,23.98
2023-03-21T10:20:29.406Z,24.04
2023-03-21T10:21:58.474Z,24.10
2023-03-21T10:22:30.396Z,24.16
2023-03-21T10:23:29.412Z,24.21
2023-03-21T10:24:29.911Z,24.26
2023-03-21T10:25:29.400Z,24.30
2023-03-21T10:26:29.370Z,24.33
2023-03-21T10:27:29.334Z,24.37
2023-03-21T10:28:32.753Z,24.40
2023-03-21T10:29:30.362Z,24.42
2023-03-21T10:30:29.343Z,24.47
2023-03-21T10:31:29.317Z,24.51
2023-03-21T10:32:29.307Z,24.53
2023-03-21T10:33:29.309Z,24.61
2023-03-21T10:34:29.392Z,24.68
2023-03-21T10:35:29.296Z,24.75
2023-03-21T10:36:29.267Z,24.81
2023-03-21T10:37:29.290Z,24.87
2023-03-21T10:38:29.274Z,24.91
2023-03-21T10:39:29.242Z,24.96
2023-03-21T10:40:31.783Z,25.00
2023-03-21T10:41:29.308Z,25.02
2023-03-21T10:42:29.304Z,25.04
2023-03-21T10:43:29.270Z,25.03
2023-03-21T10:44:29.272Z,24.99
2023-03-21T10:45:29.446Z,24.87
2023-03-21T10:46:29.729Z,24.83
2023-03-21T10:47:29.528Z,24.81
2023-03-21T10:48:29.393Z,24.78
2023-03-21T10:57:29.201Z,25.10
2023-03-21T11:02:29.212Z,25.26
2023-03-21T11:03:29.766Z,25.29
2023-03-21T11:04:29.144Z,25.30
2023-03-21T11:05:29.430Z,25.32
2023-03-21T11:06:29.196Z,25.33
2023-03-21T11:07:29.177Z,25.34
2023-03-21T11:08:29.122Z,25.37
2023-03-21T11:09:29.223Z,25.38
2023-03-21T11:10:29.531Z,25.39
2023-03-21T11:11:29.095Z,25.40
2023-03-21T11:12:29.116Z,25.42
2023-03-21T11:13:29.120Z,25.44
2023-03-21T11:14:29.076Z,25.44
2023-03-21T11:15:30.464Z,25.46
2023-03-21T11:16:29.132Z,25.48
2023-03-21T11:17:29.038Z,25.48
2023-03-21T11:18:29.120Z,25.50
2023-03-21T11:19:29.069Z,25.52
2023-03-21T11:20:29.079Z,25.53
2023-03-21T11:21:29.631Z,25.55
2023-03-21T11:22:29.113Z,25.55
2023-03-21T11:23:29.037Z,25.57
2023-03-21T11:24:29.044Z,25.58
2023-03-21T11:25:29.432Z,25.59
2023-03-21T11:26:29.033Z,25.60
2023-03-21T11:27:29.011Z,25.60
2023-03-21T11:28:29.006Z,25.62
2023-03-21T11:29:29.039Z,25.63
2023-03-21T11:30:29.428Z,25.63
2023-03-21T11:31:29.106Z,25.65
2023-03-21T11:32:29.193Z,25.66
2023-03-21T11:33:29.214Z,25.67
2023-03-21T11:34:29.302Z,25.68
2023-03-21T11:35:29.445Z,25.69
2023-03-21T11:36:29.429Z,25.69
2023-03-21T11:37:29.612Z,25.69
2023-03-21T11:38:29.494Z,25.65
2023-03-21T11:39:29.547Z,25.49
2023-03-21T11:40:29.914Z,25.41
2023-03-21T11:41:29.917Z,25.32
2023-03-21T11:42:29.708Z,25.40
2023-03-21T11:43:29.693Z,25.47
2023-03-21T11:44:29.734Z,25.48
2023-03-21T11:45:29.784Z,25.50
2023-03-21T11:46:29.906Z,25.37
2023-03-21T11:47:29.904Z,25.27
2023-03-21T11:48:29.892Z,25.30
2023-03-21T11:49:29.923Z,25.33
2023-03-21T11:50:29.945Z,25.37
2023-03-21T11:51:29.984Z,25.41
2023-03-21T11:52:32.328Z,25.45
2023-03-21T11:53:30.115Z,25.45
2023-03-21T11:54:30.153Z,25.48
2023-03-21T11:55:30.168Z,25.50
2023-03-21T11:56:30.230Z,25.50
2023-03-21T11:57:30.159Z,25.51
2023-03-21T11:58:30.224Z,25.47
2023-03-21T11:59:30.175Z,25.31
2023-03-21T12:00:30.191Z,25.28
2023-03-21T12:01:30.227Z,25.25
2023-03-21T12:02:30.354Z,25.23
2023-03-21T12:03:38.138Z,25.24
2023-03-21T12:04:31.372Z,25.24
2023-03-21T12:05:30.295Z,25.25
2023-03-21T12:06:30.254Z,25.26
2023-03-21T12:07:30.254Z,25.28
2023-03-21T12:08:30.218Z,25.29
2023-03-21T12:09:30.328Z,25.30
2023-03-21T12:10:30.230Z,25.30
2023-03-21T12:11:30.231Z,25.31
2023-03-21T12:12:38.752Z,25.32
2023-03-21T12:13:31.208Z,25.33
2023-03-21T12:14:30.245Z,25.33
2023-03-21T12:15:30.204Z,25.34
2023-03-21T12:16:30.270Z,25.35
2023-03-21T12:17:30.202Z,25.33
2023-03-21T12:18:30.212Z,25.32
2023-03-21T12:19:30.169Z,25.31
2023-03-21T12:20:30.188Z,25.31
2023-03-21T12:21:30.477Z,25.30
2023-03-21T12:22:30.197Z,25.31
2023-03-21T12:23:30.264Z,25.30
2023-03-21T12:24:30.153Z,25.30
2023-03-21T12:25:30.154Z,25.25
2023-03-21T12:26:30.130Z,25.09
2023-03-21T12:27:30.228Z,24.88
2023-03-21T12:28:33.080Z,24.71
2023-03-21T12:29:30.144Z,24.59
2023-03-21T12:30:30.126Z,24.44
2023-03-21T12:31:30.552Z,24.43
2023-03-21T12:32:30.097Z,24.42
2023-03-21T12:33:30.190Z,24.33
2023-03-21T12:34:30.079Z,24.36
2023-03-21T12:35:30.080Z,24.41
2023-03-21T12:36:30.444Z,24.46
2023-03-21T12:38:30.025Z,24.51
2023-03-21T12:39:30.046Z,24.37
2023-03-21T12:40:30.042Z,24.22
2023-03-21T12:41:30.010Z,24.19
2023-03-21T12:42:30.015Z,24.25
2023-03-21T12:43:29.998Z,24.31
2023-03-21T12:44:30.039Z,24.37
2023-03-21T12:45:37.368Z,24.43
2023-03-21T12:46:30.989Z,24.49
2023-03-21T12:47:29.982Z,24.53
2023-03-21T12:48:29.971Z,24.59
2023-03-21T12:49:30.037Z,24.63
2023-03-21T12:50:29.969Z,24.67
2023-03-21T12:51:30.042Z,24.70
2023-03-21T12:52:29.989Z,24.73
2023-03-21T12:53:29.924Z,24.75
2023-03-21T12:54:29.920Z,24.78
2023-03-21T12:55:29.965Z,24.80
2023-03-21T12:56:30.013Z,24.82
2023-03-21T12:57:30.047Z,24.84
2023-03-21T12:58:30.098Z,24.86
2023-03-21T12:59:30.140Z,24.89
2023-03-21T13:00:30.195Z,24.90
2023-03-21T13:01:30.221Z,24.85
2023-03-21T13:02:30.249Z,24.67
2023-03-21T13:03:39.165Z,24.44
2023-03-21T13:04:31.304Z,24.32
2023-03-21T13:05:30.330Z,24.32
2023-03-21T13:06:30.283Z,24.31
2023-03-21T13:07:30.281Z,24.29
2023-03-21T13:08:30.222Z,24.26
2023-03-21T13:09:37.405Z,24.26
2023-03-21T13:10:31.194Z,24.23
2023-03-21T13:11:30.213Z,24.23
2023-03-21T13:12:30.222Z,24.22
2023-03-21T13:13:30.195Z,24.21
2023-03-21T13:14:30.247Z,24.19
2023-03-21T13:15:30.196Z,24.10
2023-03-21T13:16:30.288Z,23.83
2023-03-21T13:17:30.167Z,23.46
2023-03-21T13:18:30.166Z,23.19
2023-03-21T13:19:30.135Z,22.99
2023-03-21T13:20:30.146Z,22.82
2023-03-21T13:21:30.232Z,22.66
2023-03-21T13:22:30.129Z,22.52
2023-03-21T13:23:30.154Z,22.37
2023-03-21T13:24:30.142Z,22.25
2023-03-21T13:25:30.160Z,22.17
2023-03-21T13:26:30.193Z,22.14
2023-03-21T13:27:30.290Z,22.16
2023-03-21T13:28:30.273Z,22.23
2023-03-21T13:29:30.687Z,22.32
2023-03-21T13:30:30.820Z,22.36
2023-03-21T13:31:33.855Z,22.46
2023-03-21T13:32:31.462Z,22.58
2023-03-21T13:33:30.398Z,22.71
2023-03-21T13:34:30.412Z,22.85
2023-03-21T13:35:30.370Z,22.97
2023-03-21T13:36:30.381Z,23.08
2023-03-21T13:37:30.372Z,23.20
2023-03-21T13:38:30.362Z,23.31
2023-03-21T13:39:30.376Z,23.41
2023-03-21T13:40:30.329Z,23.50
2023-03-21T13:41:30.340Z,23.59
2023-03-21T13:42:30.349Z,23.67
2023-03-21T13:43:30.381Z,23.75
2023-03-21T13:44:30.438Z,23.82
2023-03-21T13:45:30.400Z,23.89
2023-03-21T13:46:35.865Z,23.96
2023-03-21T13:47:31.420Z,24.00
2023-03-21T13:48:30.423Z,24.01
2023-03-21T13:49:30.415Z,23.91
2023-03-21T13:50:30.416Z,23.91
2023-03-21T13:51:30.448Z,23.96
2023-03-21T13:52:30.396Z,24.00
2023-03-21T13:53:30.484Z,24.06
2023-03-21T13:54:30.370Z,24.10
2023-03-21T13:55:30.428Z,24.14
2023-03-21T13:56:30.361Z,24.18
2023-03-21T13:57:30.373Z,24.24
2023-03-21T13:58:30.543Z,24.27
2023-03-21T13:59:30.361Z,24.31
2023-03-21T14:00:30.369Z,24.35
2023-03-21T14:01:30.416Z,24.38
2023-03-21T14:02:30.321Z,24.39
2023-03-21T14:03:30.452Z,24.34
2023-03-21T14:04:41.914Z,24.14
2023-03-21T14:05:31.356Z,23.93
2023-03-21T14:06:30.297Z,23.78
2023-03-21T14:07:30.315Z,23.68
2023-03-21T14:37:30.797Z,23.54
2023-03-21T14:38:30.865Z,23.47
2023-03-21T14:39:30.853Z,23.38
2023-03-21T14:40:30.848Z,23.31
2023-03-21T14:41:30.907Z,23.24
2023-03-21T14:42:30.843Z,23.19
2023-03-21T14:43:30.849Z,23.12
2023-03-21T14:44:31.076Z,23.04
2023-03-21T14:45:30.917Z,22.99
2023-03-21T16:51:33.825Z,22.85
2023-03-21T17:03:34.431Z,23.68
2023-03-21T17:04:34.348Z,23.71
2023-03-21T17:05:34.369Z,23.71
2023-03-21T17:06:34.393Z,23.56
2023-03-21T17:07:34.481Z,23.38
2023-03-21T17:08:34.502Z,23.24
2023-03-21T17:09:34.505Z,23.11
2023-03-21T17:10:34.521Z,23.00
2023-03-21T17:11:34.557Z,22.90
2023-03-21T17:12:34.561Z,22.97
2023-03-21T17:13:34.555Z,23.06
2023-03-21T17:14:34.519Z,23.14
2023-03-21T17:15:34.638Z,23.23
2023-03-21T17:29:35.138Z,23.82
2023-03-21T17:30:35.221Z,23.85
2023-03-21T17:31:35.314Z,23.88
2023-03-21T17:32:35.414Z,23.91
2023-03-21T17:33:35.187Z,23.95
2023-03-21T17:34:35.215Z,23.98
2023-03-21T17:35:35.281Z,24.01
2023-03-21T17:36:35.207Z,24.04
2023-03-21T17:37:35.224Z,24.07
2023-03-21T17:38:35.298Z,24.09
2023-03-21T17:39:35.235Z,24.11
2023-03-21T17:40:35.220Z,24.13
2023-03-21T17:41:35.260Z,24.16
2023-03-21T17:42:35.219Z,24.18
2023-03-21T17:43:35.227Z,24.19
2023-03-21T17:44:35.233Z,24.11
2023-03-21T17:45:35.248Z,23.92
2023-03-21T17:46:35.306Z,23.75
2023-03-21T17:47:35.338Z,23.69
2023-03-21T17:48:35.378Z,23.71
2023-03-21T17:49:35.386Z,23.76
2023-03-21T17:50:35.446Z,23.80
2023-03-21T17:51:35.468Z,23.84
2023-03-21T17:52:35.486Z,23.87
2023-03-21T17:53:35.499Z,23.91
2023-03-21T17:54:35.514Z,23.96
2023-03-21T17:55:35.524Z,23.98
2023-03-21T17:56:35.555Z,24.01
2023-03-21T17:57:35.570Z,24.04
2023-03-21T17:58:35.578Z,24.07
2023-03-21T17:59:35.582Z,24.10
2023-03-21T18:00:35.634Z,23.96
2023-03-21T18:01:35.702Z,23.92
2023-03-21T18:02:35.654Z,23.95
2023-03-21T18:03:35.660Z,23.96
2023-03-21T18:04:35.765Z,23.98
2023-03-21T18:05:35.656Z,24.00
2023-03-21T18:06:35.691Z,24.02
2023-03-21T18:08:05.897Z,24.03
2023-03-21T18:08:36.662Z,24.04
2023-03-21T18:09:35.680Z,24.04
2023-03-21T18:10:35.675Z,24.05
2023-03-21T18:11:35.656Z,24.06
2023-03-21T18:12:35.646Z,24.07
2023-03-21T18:13:35.895Z,24.07
2023-03-21T18:14:40.380Z,24.08
2023-03-21T18:15:38.103Z,24.08
2023-03-21T18:16:35.670Z,24.08
2023-03-21T18:17:35.623Z,24.09
2023-03-21T18:18:35.618Z,24.08